Date,TemperatureHighF,TemperatureAvgF,TemperatureLowF,DewpointHighF,DewpointAvgF,DewpointLowF,HumidityHigh,HumidityAvg,HumidityLow,PressureMaxIn,PressureMinIn,WindSpeedMaxMPH,WindSpeedAvgMPH,GustSpeedMaxMPH,PrecipitationSumIn
2013-1-1,35,19,11,16,8,2,80,63,42,30.33,30.21,8,2,8,0.00
2013-1-2,38,24,13,23,16,4,83,71,53,30.24,30.10,13,4,13,0.00
2013-1-3,40,29,17,29,21,10,85,74,51,30.42,30.23,15,4,15,0.00
2013-1-4,47,30,16,27,21,10,90,71,44,30.40,30.24,16,4,16,0.00
2013-1-5,46,35,29,33,28,22,86,75,60,30.24,30.05,18,6,18,0.00
2013-1-6,47,32,20,23,20,15,82,63,36,30.38,30.18,15,5,15,0.00
2013-1-7,49,37,27,27,24,19,75,60,39,30.28,30.05,20,6,20,0.00
2013-1-8,56,43,36,33,30,27,77,63,40,30.21,29.98,19,6,19,0.00
2013-1-9,68,41,29,43,28,22,79,64,26,30.46,30.21,8,2,8,0.00
2013-1-10,44,40,37,43,36,23,95,85,46,30.39,29.77,18,6,18,0.20
2013-1-11,58,52,44,48,45,27,96,79,38,29.79,29.59,22,8,22,0.01
2013-1-12,52,29,20,34,18,10,80,63,38,30.15,29.74,22,7,22,0.00
2013-1-13,33,20,14,12,8,5,72,60,40,30.36,30.09,15,6,15,0.00
2013-1-14,47,25,12,18,9,4,73,54,25,30.54,30.35,8,1,8,0.00
2013-1-15,44,27,16,19,11,8,74,53,28,30.43,30.18,8,1,8,0.00
2013-1-16,54,34,20,33,22,11,75,61,44,30.23,30.03,14,5,14,0.00
2013-1-17,58,39,26,31,25,20,83,60,31,30.51,30.23,10,2,10,0.00
2013-1-18,61,45,31,33,29,23,80,57,34,30.40,30.03,26,9,26,0.00
2013-1-19,66,47,37,34,30,24,75,53,26,30.30,29.97,19,7,19,0.00
2013-1-20,41,28,18,24,10,7,69,48,29,30.42,30.30,13,4,13,0.00
2013-1-21,19,17,15,10,2,-7,74,53,36,30.48,30.40,11,4,12,0.00
2013-1-22,34,21,14,10,5,-2,67,49,35,30.46,30.30,9,3,9,0.00
2013-1-23,56,30,15,24,14,6,71,54,29,30.48,30.22,13,4,15,0.00
2013-1-24,24,18,8,9,3,-2,66,54,43,30.57,30.21,17,7,17,0.00
2013-1-25,54,34,18,23,16,8,68,48,29,30.28,30.17,11,2,11,0.00
2013-1-26,49,34,22,24,21,15,79,59,38,30.34,30.13,14,6,14,0.00
2013-1-27,57,45,35,53,41,23,96,87,57,30.14,29.78,18,7,18,0.11
2013-1-28,75,58,45,60,51,42,93,79,49,29.93,29.69,22,6,22,0.00
2013-1-29,67,46,34,61,42,32,92,86,74,29.72,29.52,21,6,21,0.28
2013-1-30,34,26,19,32,22,12,93,82,69,29.98,29.55,24,10,24,0.01
2013-1-31,22,16,6,16,6,-3,80,66,49,30.48,29.97,21,7,21,0.00